Aviation Digital Data Service (ADDS)

Output produced by TAFs form (2047 UTC 29 March 2015)
found at http://aviationweather.gov/adds/tafs/
 
KGJT 291726Z 2918/3018 04012G20KT P6SM FEW250 
     FM291900 05008G15KT P6SM FEW250 
     FM292100 33007KT P6SM FEW250 
     FM300300 06007KT P6SM FEW250 
     FM300800 12010KT P6SM FEW250